createdAt,value
2024-03-26T00:00:26.227Z,55.21
2024-03-26T00:01:26.277Z,56.94
2024-03-26T00:02:26.274Z,55.94
2024-03-26T00:03:26.297Z,57.43
2024-03-26T00:04:26.329Z,55.74
2024-03-26T00:05:26.356Z,56.29
2024-03-26T00:06:26.389Z,55.13
2024-03-26T00:07:26.395Z,56.24
2024-03-26T00:08:26.420Z,54.59
2024-03-26T00:09:26.441Z,56.07
2024-03-26T00:10:26.464Z,55.85
2024-03-26T00:11:26.497Z,53.91
2024-03-26T00:12:26.510Z,55.58
2024-03-26T00:13:26.538Z,56.25
2024-03-26T00:14:26.565Z,54.74
2024-03-26T00:15:26.586Z,54.38
2024-03-26T00:16:26.622Z,53.88
2024-03-26T00:17:26.644Z,54.94
2024-03-26T00:18:26.730Z,54.33
2024-03-26T00:19:26.682Z,54.62
2024-03-26T00:20:26.738Z,54.80
2024-03-26T00:21:26.752Z,53.78
2024-03-26T00:22:26.762Z,56.21
2024-03-26T00:23:26.795Z,55.86
2024-03-26T00:24:26.812Z,53.79
2024-03-26T00:25:26.844Z,54.97
2024-03-26T00:26:26.877Z,55.63
2024-03-26T00:27:26.907Z,54.72
2024-03-26T00:28:26.928Z,56.39
2024-03-26T00:29:26.965Z,54.02
2024-03-26T00:30:26.997Z,55.26
2024-03-26T00:31:27.022Z,56.78
2024-03-26T00:32:27.068Z,52.35
2024-03-26T00:33:27.089Z,53.51
2024-03-26T00:34:27.145Z,54.29
2024-03-26T00:35:27.196Z,56.51
2024-03-26T00:36:27.177Z,55.39
2024-03-26T00:37:27.200Z,54.04
2024-03-26T00:38:27.239Z,54.28
2024-03-26T00:39:27.266Z,55.10
2024-03-26T00:40:27.293Z,54.34
2024-03-26T00:41:27.318Z,54.25
2024-03-26T00:42:27.347Z,55.05
2024-03-26T00:43:27.385Z,54.45
2024-03-26T00:44:27.399Z,53.15
2024-03-26T00:45:27.435Z,54.47
2024-03-26T00:46:27.466Z,54.81
2024-03-26T00:47:27.491Z,55.94
2024-03-26T00:48:27.502Z,54.99
2024-03-26T00:49:27.533Z,54.21
2024-03-26T00:50:27.569Z,54.40
2024-03-26T00:51:27.600Z,55.12
2024-03-26T00:52:27.625Z,50.84
2024-03-26T00:53:27.648Z,53.53
2024-03-26T00:54:27.761Z,51.91
2024-03-26T00:55:27.698Z,52.17
2024-03-26T00:56:27.725Z,52.54
2024-03-26T00:57:27.773Z,54.54
2024-03-26T00:58:27.785Z,50.30
2024-03-26T00:59:27.815Z,51.82
2024-03-26T01:00:27.872Z,53.82
2024-03-26T01:01:27.876Z,54.34
2024-03-26T01:02:27.910Z,53.81
2024-03-26T01:03:27.965Z,53.18
2024-03-26T01:04:27.967Z,53.84
2024-03-26T01:05:28.026Z,51.04
2024-03-26T01:06:28.059Z,52.64
2024-03-26T01:07:28.061Z,53.94
2024-03-26T01:08:28.095Z,52.33
2024-03-26T01:09:28.132Z,52.93
2024-03-26T01:10:28.177Z,55.09
2024-03-26T01:11:28.190Z,51.55
2024-03-26T01:12:28.219Z,51.39
2024-03-26T01:13:28.250Z,54.20
2024-03-26T01:14:28.283Z,51.88
2024-03-26T01:15:28.315Z,52.70
2024-03-26T01:16:28.375Z,53.57
2024-03-26T01:17:28.422Z,54.94
2024-03-26T01:18:28.416Z,52.29
2024-03-26T01:19:28.446Z,54.87
2024-03-26T01:20:28.483Z,52.70
2024-03-26T01:21:28.509Z,51.66
2024-03-26T01:22:28.543Z,53.25
2024-03-26T01:23:28.576Z,53.83
2024-03-26T01:24:28.608Z,51.58
2024-03-26T01:25:28.630Z,50.88
2024-03-26T01:26:28.667Z,52.96
2024-03-26T01:27:28.699Z,50.94
2024-03-26T01:28:28.727Z,51.54
2024-03-26T01:29:28.752Z,54.09
2024-03-26T01:30:28.787Z,50.93
2024-03-26T01:31:28.823Z,54.13
2024-03-26T01:32:28.865Z,52.89
2024-03-26T01:33:28.875Z,52.44
2024-03-26T01:34:28.903Z,52.34
2024-03-26T01:35:28.939Z,52.71
2024-03-26T01:36:28.995Z,52.44
2024-03-26T01:37:29.030Z,54.64
2024-03-26T01:38:29.047Z,52.62
2024-03-26T01:39:29.830Z,51.02
2024-03-26T01:40:29.091Z,53.04
2024-03-26T01:41:29.121Z,51.55
2024-03-26T01:42:29.152Z,54.00
2024-03-26T01:43:29.204Z,53.15
2024-03-26T01:44:29.218Z,55.86
2024-03-26T01:45:29.263Z,51.97
2024-03-26T01:46:29.294Z,53.48
2024-03-26T01:47:29.337Z,54.09
2024-03-26T01:48:29.338Z,54.65
2024-03-26T01:49:29.388Z,50.00
2024-03-26T01:50:29.406Z,51.80
2024-03-26T01:51:29.458Z,50.73
2024-03-26T01:52:29.506Z,54.90
2024-03-26T01:53:29.547Z,52.46
2024-03-26T01:54:29.558Z,52.88
2024-03-26T01:55:29.597Z,55.73
2024-03-26T01:56:29.611Z,55.69
2024-03-26T01:57:29.652Z,55.89
2024-03-26T01:58:29.673Z,54.81
2024-03-26T01:59:29.704Z,53.51
2024-03-26T02:00:29.751Z,54.16
2024-03-26T02:01:29.773Z,51.57
2024-03-26T02:02:29.841Z,50.29
2024-03-26T02:03:29.837Z,50.83
2024-03-26T02:04:29.869Z,52.02
2024-03-26T02:05:29.910Z,52.15
2024-03-26T02:06:29.934Z,54.83
2024-03-26T02:07:29.966Z,51.69
2024-03-26T02:08:29.992Z,52.02
2024-03-26T02:09:30.022Z,52.16
2024-03-26T02:10:30.054Z,52.34
2024-03-26T02:11:30.096Z,51.46
2024-03-26T02:12:30.126Z,51.94
2024-03-26T02:13:30.156Z,51.72
2024-03-26T02:14:30.194Z,52.13
2024-03-26T02:15:30.232Z,52.30
2024-03-26T02:16:30.263Z,52.28
2024-03-26T02:17:30.307Z,52.62
2024-03-26T02:18:30.322Z,50.84
2024-03-26T02:19:30.352Z,53.58
2024-03-26T02:20:30.388Z,51.15
2024-03-26T02:21:30.423Z,53.27
2024-03-26T02:22:30.448Z,51.88
2024-03-26T02:23:30.485Z,51.14
2024-03-26T02:24:30.518Z,51.36
2024-03-26T02:25:30.545Z,52.96
2024-03-26T02:26:30.573Z,51.84
2024-03-26T02:27:30.602Z,53.62
2024-03-26T02:28:30.644Z,51.54
2024-03-26T02:29:30.669Z,52.12
2024-03-26T02:30:30.713Z,52.66
2024-03-26T02:31:30.756Z,53.52
2024-03-26T02:32:30.782Z,52.68
2024-03-26T02:33:30.806Z,52.93
2024-03-26T02:34:30.848Z,52.62
2024-03-26T02:35:30.882Z,51.40
2024-03-26T02:36:30.916Z,51.03
2024-03-26T02:37:30.960Z,54.17
2024-03-26T02:38:31.008Z,54.02
2024-03-26T02:39:31.030Z,51.65
2024-03-26T02:40:31.115Z,52.29
2024-03-26T02:41:31.178Z,53.03
2024-03-26T02:42:31.192Z,53.46
2024-03-26T02:43:31.234Z,52.11
2024-03-26T02:44:31.258Z,50.00
2024-03-26T02:45:31.308Z,53.16
2024-03-26T02:46:31.280Z,53.91
2024-03-26T02:47:31.293Z,55.07
2024-03-26T02:48:31.324Z,54.89
2024-03-26T02:49:31.365Z,52.46
2024-03-26T02:50:31.413Z,53.09
2024-03-26T02:51:31.450Z,53.92
2024-03-26T02:52:31.473Z,52.14
2024-03-26T02:53:31.503Z,53.48
2024-03-26T02:54:31.550Z,53.31
2024-03-26T02:55:31.613Z,54.21
2024-03-26T02:56:31.626Z,54.54
2024-03-26T02:57:31.681Z,53.61
2024-03-26T02:58:31.707Z,53.45
2024-03-26T02:59:31.746Z,54.02
2024-03-26T03:00:31.791Z,52.73
2024-03-26T03:01:31.835Z,53.58
2024-03-26T03:02:31.865Z,51.72
2024-03-26T03:03:31.901Z,50.00
2024-03-26T03:04:31.928Z,55.08
2024-03-26T03:05:31.966Z,53.82
2024-03-26T03:06:32.007Z,52.73
2024-03-26T03:07:32.050Z,51.27
2024-03-26T03:08:32.080Z,51.63
2024-03-26T03:09:32.121Z,52.00
2024-03-26T03:10:32.162Z,52.79
2024-03-26T03:11:32.207Z,53.05
2024-03-26T03:12:32.242Z,54.25
2024-03-26T03:13:32.284Z,54.75
2024-03-26T03:14:32.329Z,54.56
2024-03-26T03:15:32.364Z,53.99
2024-03-26T03:16:32.409Z,54.04
2024-03-26T03:17:32.477Z,54.07
2024-03-26T03:18:32.492Z,52.78
2024-03-26T03:19:32.528Z,52.76
2024-03-26T03:20:32.586Z,53.19
2024-03-26T03:21:32.610Z,53.55
2024-03-26T03:22:32.666Z,53.24
2024-03-26T03:23:32.693Z,54.14
2024-03-26T03:24:32.738Z,52.83
2024-03-26T03:25:32.773Z,54.56
2024-03-26T03:26:32.818Z,55.07
2024-03-26T03:27:32.863Z,52.15
2024-03-26T03:28:32.910Z,52.43
2024-03-26T03:29:32.955Z,54.03
2024-03-26T03:30:32.993Z,51.87
2024-03-26T03:31:33.048Z,52.89
2024-03-26T03:32:33.084Z,52.25
2024-03-26T03:33:33.130Z,54.36
2024-03-26T03:34:33.168Z,52.53
2024-03-26T03:35:33.212Z,50.24
2024-03-26T03:36:33.258Z,53.25
2024-03-26T03:37:33.300Z,54.42
2024-03-26T03:38:33.341Z,53.71
2024-03-26T03:39:33.380Z,53.40
2024-03-26T03:40:33.424Z,54.28
2024-03-26T03:41:33.477Z,52.96
2024-03-26T03:42:33.519Z,53.97
2024-03-26T03:43:33.562Z,53.74
2024-03-26T03:44:33.606Z,51.11
2024-03-26T03:45:33.648Z,56.33
2024-03-26T03:46:33.703Z,53.35
2024-03-26T03:47:33.745Z,53.01
2024-03-26T03:48:33.796Z,53.59
2024-03-26T03:49:33.836Z,53.94
2024-03-26T03:50:33.890Z,53.93
2024-03-26T03:51:33.945Z,52.56
2024-03-26T03:52:33.975Z,55.62
2024-03-26T03:53:34.042Z,54.63
2024-03-26T03:54:34.076Z,51.80
2024-03-26T03:55:34.129Z,55.34
2024-03-26T03:56:34.171Z,54.53
2024-03-26T03:57:34.215Z,52.97
2024-03-26T03:58:34.268Z,53.43
2024-03-26T03:59:34.304Z,53.72
2024-03-26T04:00:34.350Z,53.45
2024-03-26T04:01:34.399Z,52.44
2024-03-26T04:02:34.444Z,52.80
2024-03-26T04:03:34.491Z,53.83
2024-03-26T04:04:34.537Z,53.44
2024-03-26T04:05:34.602Z,52.82
2024-03-26T04:06:34.623Z,53.76
2024-03-26T04:07:34.666Z,53.56
2024-03-26T04:08:34.710Z,53.50
2024-03-26T04:09:34.751Z,54.71
2024-03-26T04:10:34.800Z,56.23
2024-03-26T04:11:34.857Z,53.91
2024-03-26T04:12:34.885Z,55.72
2024-03-26T04:13:34.934Z,53.54
2024-03-26T04:14:34.988Z,53.30
2024-03-26T04:15:35.022Z,54.14
2024-03-26T04:16:35.074Z,53.44
2024-03-26T04:17:35.114Z,55.18
2024-03-26T04:18:36.469Z,54.71
2024-03-26T04:19:35.195Z,54.38
2024-03-26T04:20:35.239Z,51.95
2024-03-26T04:21:35.284Z,54.12
2024-03-26T04:22:35.334Z,53.14
2024-03-26T04:23:35.372Z,53.51
2024-03-26T04:24:35.415Z,51.39
2024-03-26T04:25:35.478Z,54.57
2024-03-26T04:26:35.508Z,52.70
2024-03-26T04:27:35.544Z,54.75
2024-03-26T04:28:35.588Z,50.81
2024-03-26T04:29:35.632Z,53.17
2024-03-26T04:30:35.681Z,51.70
2024-03-26T04:31:35.715Z,52.71
2024-03-26T04:32:35.767Z,51.79
2024-03-26T04:33:35.799Z,53.70
2024-03-26T04:34:35.856Z,52.40
2024-03-26T04:35:35.898Z,53.43
2024-03-26T04:36:43.161Z,50.00
2024-03-26T04:37:43.170Z,50.00
2024-03-26T04:38:43.181Z,50.00
2024-03-26T04:39:43.192Z,50.00
2024-03-26T04:40:43.210Z,50.00
2024-03-26T04:41:43.241Z,51.22
2024-03-26T04:42:43.246Z,50.76
2024-03-26T04:43:43.273Z,50.25
2024-03-26T04:44:43.286Z,53.73
2024-03-26T04:45:43.307Z,52.92
2024-03-26T04:46:43.324Z,52.08
2024-03-26T04:47:43.338Z,53.99
2024-03-26T04:48:43.356Z,51.12
2024-03-26T04:49:43.375Z,52.61
2024-03-26T04:50:43.387Z,53.45
2024-03-26T04:51:43.391Z,52.88
2024-03-26T04:52:43.392Z,51.30
2024-03-26T04:53:43.414Z,52.36
2024-03-26T04:54:43.423Z,53.42
2024-03-26T04:55:43.462Z,52.18
2024-03-26T04:56:43.466Z,51.76
2024-03-26T04:57:43.472Z,51.28
2024-03-26T04:58:43.496Z,51.36
2024-03-26T04:59:43.509Z,52.62
2024-03-26T05:00:43.530Z,52.95
2024-03-26T05:01:43.551Z,53.26
2024-03-26T05:02:43.558Z,52.30
2024-03-26T05:03:43.592Z,50.70
2024-03-26T05:04:43.594Z,52.56
2024-03-26T05:05:43.603Z,51.35
2024-03-26T05:06:43.626Z,51.73
2024-03-26T05:07:43.631Z,52.53
2024-03-26T05:08:43.654Z,50.24
2024-03-26T05:09:43.676Z,53.34
2024-03-26T05:10:43.718Z,51.46
2024-03-26T05:11:43.709Z,53.53
2024-03-26T05:12:43.729Z,53.67
2024-03-26T05:13:43.747Z,52.83
2024-03-26T05:14:43.765Z,54.03
2024-03-26T05:15:43.785Z,55.82
2024-03-26T05:16:43.803Z,51.79
2024-03-26T05:17:43.804Z,52.89
2024-03-26T05:18:43.824Z,52.44
2024-03-26T05:19:43.828Z,53.16
2024-03-26T05:20:43.874Z,54.15
2024-03-26T05:21:43.850Z,53.55
2024-03-26T05:22:43.858Z,53.57
2024-03-26T05:23:43.880Z,53.14
2024-03-26T05:24:43.889Z,53.33
2024-03-26T05:25:43.909Z,54.02
2024-03-26T05:26:43.920Z,51.94
2024-03-26T05:27:43.936Z,53.89
2024-03-26T05:28:44.672Z,52.10
2024-03-26T05:29:43.979Z,52.00
2024-03-26T05:30:44.034Z,51.78
2024-03-26T05:31:44.087Z,51.68
2024-03-26T05:32:44.137Z,53.38
2024-03-26T05:33:44.183Z,52.79
2024-03-26T05:34:44.240Z,53.66
2024-03-26T05:35:44.292Z,51.82
2024-03-26T05:36:44.350Z,52.40
2024-03-26T05:37:44.404Z,52.52
2024-03-26T05:38:44.449Z,53.79
2024-03-26T05:39:44.499Z,53.06
2024-03-26T05:40:44.551Z,53.40
2024-03-26T05:41:44.613Z,54.24
2024-03-26T05:42:44.654Z,55.09
2024-03-26T05:43:44.707Z,54.31
2024-03-26T05:44:44.761Z,52.97
2024-03-26T05:45:44.802Z,52.59
2024-03-26T05:46:44.868Z,53.92
2024-03-26T05:47:44.910Z,52.05
2024-03-26T05:48:44.957Z,52.74
2024-03-26T05:49:44.993Z,54.19
2024-03-26T05:50:45.042Z,50.64
2024-03-26T05:51:45.096Z,53.31
2024-03-26T05:52:45.153Z,54.32
2024-03-26T05:53:45.229Z,52.27
2024-03-26T05:54:45.239Z,53.44
2024-03-26T05:55:45.293Z,53.02
2024-03-26T05:56:45.336Z,54.12
2024-03-26T05:57:45.380Z,55.22
2024-03-26T05:58:45.434Z,53.14
2024-03-26T05:59:45.481Z,52.62
2024-03-26T06:00:45.539Z,53.04
2024-03-26T06:01:45.588Z,52.03
2024-03-26T06:02:45.637Z,53.73
2024-03-26T06:03:45.672Z,51.61
2024-03-26T06:04:45.728Z,56.04
2024-03-26T06:05:45.766Z,54.35
2024-03-26T06:06:45.823Z,53.64
2024-03-26T06:07:45.863Z,52.63
2024-03-26T06:08:45.910Z,54.13
2024-03-26T06:09:45.965Z,53.33
2024-03-26T06:10:46.000Z,54.39
2024-03-26T06:11:46.059Z,53.57
2024-03-26T06:12:46.099Z,52.82
2024-03-26T06:13:46.143Z,52.72
2024-03-26T06:14:46.198Z,53.51
2024-03-26T06:15:46.240Z,53.23
2024-03-26T06:16:46.289Z,52.90
2024-03-26T06:17:46.330Z,52.48
2024-03-26T06:18:46.366Z,54.96
2024-03-26T06:19:46.412Z,54.25
2024-03-26T06:20:46.462Z,54.78
2024-03-26T06:21:46.507Z,52.82
2024-03-26T06:22:46.549Z,53.19
2024-03-26T06:23:46.594Z,53.93
2024-03-26T06:24:46.635Z,52.69
2024-03-26T06:25:46.672Z,54.60
2024-03-26T06:26:46.735Z,52.00
2024-03-26T06:27:46.773Z,54.89
2024-03-26T06:28:46.822Z,53.14
2024-03-26T06:29:46.858Z,50.82
2024-03-26T06:30:46.909Z,54.12
2024-03-26T06:31:46.988Z,50.26
2024-03-26T06:32:47.018Z,54.04
2024-03-26T06:33:47.027Z,55.74
2024-03-26T06:34:47.078Z,53.80
2024-03-26T06:35:47.121Z,52.88
2024-03-26T06:36:47.154Z,53.00
2024-03-26T06:37:47.194Z,53.49
2024-03-26T06:38:47.243Z,53.67
2024-03-26T06:39:47.276Z,54.67
2024-03-26T06:40:47.315Z,51.53
2024-03-26T06:41:47.361Z,53.44
2024-03-26T06:42:47.399Z,54.58
2024-03-26T06:43:47.436Z,51.72
2024-03-26T06:44:47.484Z,53.79
2024-03-26T06:45:47.527Z,53.21
2024-03-26T06:46:47.561Z,53.58
2024-03-26T06:47:47.596Z,52.37
2024-03-26T06:48:47.629Z,53.40
2024-03-26T06:49:47.665Z,51.55
2024-03-26T06:50:47.707Z,52.61
2024-03-26T06:51:47.759Z,51.56
2024-03-26T06:52:47.816Z,53.38
2024-03-26T06:53:47.824Z,52.13
2024-03-26T06:54:47.867Z,53.12
2024-03-26T06:55:47.900Z,54.40
2024-03-26T06:56:47.934Z,51.81
2024-03-26T06:57:47.963Z,53.48
2024-03-26T06:58:48.000Z,52.11
2024-03-26T06:59:48.026Z,50.21
2024-03-26T07:00:48.051Z,51.04
2024-03-26T07:01:48.090Z,52.29
2024-03-26T07:02:48.100Z,53.11
2024-03-26T07:03:48.137Z,53.18
2024-03-26T07:04:48.146Z,51.46
2024-03-26T07:05:48.180Z,54.49
2024-03-26T07:06:48.189Z,54.69
2024-03-26T07:07:48.212Z,54.52
2024-03-26T07:08:48.238Z,54.54
2024-03-26T07:09:48.245Z,54.86
2024-03-26T07:10:48.260Z,55.16
2024-03-26T07:11:48.288Z,54.75
2024-03-26T07:12:48.311Z,55.58
2024-03-26T07:13:48.338Z,56.13
2024-03-26T07:14:48.356Z,55.04
2024-03-26T07:15:48.374Z,56.10
2024-03-26T07:16:48.384Z,56.59
2024-03-26T07:17:48.405Z,56.20
2024-03-26T07:18:50.172Z,56.34
2024-03-26T07:19:48.432Z,55.13
2024-03-26T07:20:48.444Z,55.98
2024-03-26T07:21:48.458Z,58.01
2024-03-26T07:22:48.463Z,55.09
2024-03-26T07:23:48.474Z,55.37
2024-03-26T07:24:48.491Z,54.33
2024-03-26T07:25:48.506Z,53.43
2024-03-26T07:26:48.521Z,55.95
2024-03-26T07:27:48.525Z,56.08
2024-03-26T07:28:48.526Z,57.30
2024-03-26T07:29:48.537Z,55.62
2024-03-26T07:30:48.561Z,54.42
2024-03-26T07:31:48.555Z,55.81
2024-03-26T07:32:48.566Z,56.99
2024-03-26T07:33:48.579Z,55.21
2024-03-26T07:34:48.607Z,54.66
2024-03-26T07:35:48.623Z,54.78
2024-03-26T07:36:48.633Z,55.11
2024-03-26T07:37:48.642Z,54.58
2024-03-26T07:38:48.672Z,56.32
2024-03-26T07:39:48.654Z,56.50
2024-03-26T07:40:48.667Z,57.06
2024-03-26T07:41:48.771Z,56.21
2024-03-26T07:42:48.696Z,56.27
2024-03-26T07:43:48.697Z,56.59
2024-03-26T07:44:48.715Z,56.36
2024-03-26T07:45:48.723Z,57.91
2024-03-26T07:46:48.746Z,57.99
2024-03-26T07:47:48.746Z,57.30
2024-03-26T07:48:48.787Z,58.45
2024-03-26T07:49:48.772Z,57.38
2024-03-26T07:50:50.261Z,57.99
2024-03-26T07:51:48.786Z,59.16
2024-03-26T07:52:48.799Z,59.03
2024-03-26T07:53:48.816Z,57.97
2024-03-26T07:54:48.818Z,58.93
2024-03-26T07:55:48.823Z,58.95
2024-03-26T07:56:48.831Z,59.32
2024-03-26T07:57:48.832Z,59.31
2024-03-26T07:58:48.906Z,60.08
2024-03-26T07:59:48.898Z,58.89
2024-03-26T08:00:48.850Z,60.26
2024-03-26T08:01:48.978Z,59.67
2024-03-26T08:02:48.857Z,58.57
2024-03-26T08:03:48.934Z,59.92
2024-03-26T08:04:48.904Z,60.64
2024-03-26T08:05:48.862Z,57.66
2024-03-26T08:06:48.869Z,59.23
2024-03-26T08:07:48.863Z,59.38
2024-03-26T08:08:48.934Z,59.25
2024-03-26T08:09:48.895Z,58.88
2024-03-26T08:10:48.929Z,59.49
2024-03-26T08:11:48.974Z,59.23
2024-03-26T08:12:48.972Z,60.38
2024-03-26T08:13:49.014Z,58.50
2024-03-26T08:14:49.063Z,59.44
2024-03-26T08:15:49.120Z,59.25
2024-03-26T08:16:49.152Z,58.53
2024-03-26T08:17:49.189Z,60.00
2024-03-26T08:18:49.243Z,59.35
2024-03-26T08:19:49.328Z,59.50
2024-03-26T08:20:49.370Z,60.20
2024-03-26T08:21:49.440Z,59.05
2024-03-26T08:22:49.519Z,59.27
2024-03-26T08:23:49.544Z,59.11
2024-03-26T08:24:49.596Z,58.75
2024-03-26T08:25:49.719Z,58.58
2024-03-26T08:26:49.674Z,57.79
2024-03-26T08:27:49.699Z,59.41
2024-03-26T08:28:49.742Z,58.67
2024-03-26T08:29:49.747Z,58.54
2024-03-26T08:30:49.777Z,58.35
2024-03-26T08:31:49.819Z,58.27
2024-03-26T08:32:49.898Z,59.06
2024-03-26T08:33:49.975Z,57.79
2024-03-26T08:34:49.996Z,57.91
2024-03-26T08:35:50.059Z,58.16
2024-03-26T08:36:50.126Z,58.03
2024-03-26T08:37:50.142Z,58.84
2024-03-26T08:38:50.126Z,59.25
2024-03-26T08:39:50.126Z,55.70
2024-03-26T08:40:50.143Z,57.80
2024-03-26T08:41:50.164Z,58.88
2024-03-26T08:42:50.192Z,57.77
2024-03-26T08:43:50.276Z,58.74
2024-03-26T08:44:50.283Z,56.96
2024-03-26T08:45:50.298Z,57.79
2024-03-26T08:46:50.343Z,56.31
2024-03-26T08:47:50.404Z,56.96
2024-03-26T08:48:50.449Z,57.61
2024-03-26T08:49:50.495Z,58.23
2024-03-26T08:50:50.552Z,57.22
2024-03-26T08:51:52.150Z,58.12
2024-03-26T08:52:50.608Z,57.13
2024-03-26T08:53:50.644Z,55.93
2024-03-26T08:54:50.690Z,58.04
2024-03-26T08:55:50.761Z,56.03
2024-03-26T08:56:50.780Z,58.13
2024-03-26T08:57:50.819Z,57.05
2024-03-26T08:58:50.847Z,57.55
2024-03-26T08:59:50.892Z,57.42
2024-03-26T09:00:50.929Z,55.67
2024-03-26T09:01:50.988Z,57.64
2024-03-26T09:02:51.064Z,58.05
2024-03-26T09:03:51.026Z,57.44
2024-03-26T09:04:51.038Z,56.89
2024-03-26T09:05:51.042Z,57.03
2024-03-26T09:06:51.069Z,57.09
2024-03-26T09:07:51.075Z,57.72
2024-03-26T09:08:51.100Z,56.53
2024-03-26T09:09:51.134Z,57.52
2024-03-26T09:10:51.170Z,57.93
2024-03-26T09:11:51.199Z,57.43
2024-03-26T09:12:51.229Z,56.17
2024-03-26T09:13:51.241Z,57.94
2024-03-26T09:14:51.280Z,56.83
2024-03-26T09:15:51.266Z,58.04
2024-03-26T09:16:51.274Z,57.89
2024-03-26T09:17:51.294Z,57.96
2024-03-26T09:18:51.303Z,60.18
2024-03-26T09:19:51.330Z,58.81
2024-03-26T09:20:51.386Z,59.59
2024-03-26T09:21:51.386Z,58.47
2024-03-26T09:22:51.410Z,58.62
2024-03-26T09:23:52.042Z,59.32
2024-03-26T09:24:51.428Z,61.55
2024-03-26T09:25:51.461Z,59.48
2024-03-26T09:26:51.466Z,58.62
2024-03-26T09:27:51.486Z,57.45
2024-03-26T09:28:51.514Z,57.68
2024-03-26T09:29:51.531Z,58.88
2024-03-26T09:30:51.572Z,58.51
2024-03-26T09:31:51.574Z,59.73
2024-03-26T09:32:51.592Z,58.27
2024-03-26T09:33:51.982Z,58.72
2024-03-26T09:34:51.627Z,57.08
2024-03-26T09:35:51.643Z,57.60
2024-03-26T09:36:51.657Z,57.48
2024-03-26T09:37:51.659Z,59.18
2024-03-26T09:38:53.833Z,57.39
2024-03-26T09:39:52.690Z,57.47
2024-03-26T09:40:51.719Z,57.56
2024-03-26T09:41:51.702Z,58.01
2024-03-26T09:42:51.703Z,57.57
2024-03-26T09:43:51.709Z,57.88
2024-03-26T09:44:58.533Z,60.36
2024-03-26T09:45:52.731Z,60.38
2024-03-26T09:46:51.751Z,60.48
2024-03-26T09:47:51.752Z,60.42
2024-03-26T09:48:51.770Z,59.65
2024-03-26T09:49:51.759Z,60.18
2024-03-26T09:50:51.763Z,60.14
2024-03-26T09:51:51.758Z,59.61
2024-03-26T09:52:51.770Z,60.43
2024-03-26T09:53:51.777Z,59.34
2024-03-26T09:54:51.782Z,59.52
2024-03-26T09:55:51.807Z,60.50
2024-03-26T09:56:51.805Z,59.74
2024-03-26T09:57:51.815Z,58.91
2024-03-26T09:58:51.823Z,59.77
2024-03-26T09:59:51.834Z,62.09
2024-03-26T10:00:51.843Z,60.75
2024-03-26T10:01:51.849Z,59.98
2024-03-26T10:02:51.865Z,60.04
2024-03-26T10:03:51.896Z,59.35
2024-03-26T10:04:51.889Z,60.34
2024-03-26T10:05:51.885Z,59.04
2024-03-26T10:06:51.906Z,59.51
2024-03-26T10:07:51.899Z,59.56
2024-03-26T10:08:51.923Z,60.17
2024-03-26T10:09:51.919Z,59.52
2024-03-26T10:10:51.923Z,61.23
2024-03-26T10:11:51.929Z,60.18
2024-03-26T10:12:51.934Z,59.83
2024-03-26T10:13:51.936Z,59.71
2024-03-26T10:14:51.918Z,59.33
2024-03-26T10:15:51.928Z,61.31
2024-03-26T10:16:51.922Z,59.05
2024-03-26T10:17:51.925Z,60.83
2024-03-26T10:18:51.944Z,60.97
2024-03-26T10:19:52.002Z,59.04
2024-03-26T10:20:51.927Z,59.84
2024-03-26T10:21:51.931Z,59.14
2024-03-26T10:22:52.878Z,59.77
2024-03-26T10:23:51.926Z,60.29
2024-03-26T10:24:51.929Z,59.93
2024-03-26T10:25:51.984Z,60.27
2024-03-26T10:26:51.938Z,59.33
2024-03-26T10:27:51.938Z,60.00
2024-03-26T10:28:51.935Z,59.85
2024-03-26T10:29:51.966Z,61.22
2024-03-26T10:30:52.002Z,60.39
2024-03-26T10:31:52.061Z,61.83
2024-03-26T10:32:52.124Z,59.97
2024-03-26T10:33:52.160Z,60.97
2024-03-26T10:34:52.157Z,62.92
2024-03-26T10:35:52.163Z,61.06
2024-03-26T10:36:52.166Z,60.98
2024-03-26T10:37:54.831Z,60.88
2024-03-26T10:39:00.317Z,60.97
2024-03-26T10:39:53.154Z,61.08
2024-03-26T10:40:54.326Z,61.59
2024-03-26T10:41:52.172Z,61.03
2024-03-26T10:42:52.164Z,61.42
2024-03-26T10:43:52.165Z,62.17
2024-03-26T10:44:52.161Z,62.39
2024-03-26T10:46:52.205Z,61.07
2024-03-26T10:47:52.198Z,61.69
2024-03-26T10:48:57.578Z,62.20
2024-03-26T10:49:53.203Z,61.11
2024-03-26T10:50:52.191Z,61.88
2024-03-26T10:51:52.207Z,62.73
2024-03-26T10:52:52.229Z,64.43
2024-03-26T10:53:52.222Z,66.11
2024-03-26T10:54:52.225Z,66.25
2024-03-26T10:55:52.237Z,65.49
2024-03-26T10:56:52.226Z,65.48
2024-03-26T10:57:52.246Z,65.73
2024-03-26T10:58:52.307Z,65.93
2024-03-26T10:59:52.373Z,64.94
2024-03-26T11:00:52.449Z,64.97
2024-03-26T11:01:52.507Z,65.24
2024-03-26T11:02:52.571Z,65.06
2024-03-26T11:03:52.644Z,65.61
2024-03-26T11:04:52.688Z,65.18
2024-03-26T11:05:52.734Z,65.47
2024-03-26T11:06:52.805Z,65.10
2024-03-26T11:07:52.880Z,63.81
2024-03-26T11:08:52.940Z,64.27
2024-03-26T11:09:53.093Z,64.33
2024-03-26T11:10:54.169Z,64.69
2024-03-26T11:11:53.126Z,65.08
2024-03-26T11:12:53.177Z,64.86
2024-03-26T11:13:53.222Z,64.42
2024-03-26T11:14:53.263Z,63.37
2024-03-26T11:15:53.339Z,64.04
2024-03-26T11:16:53.394Z,64.44
2024-03-26T11:17:53.466Z,63.36
2024-03-26T11:18:53.504Z,64.71
2024-03-26T11:19:53.568Z,64.40
2024-03-26T11:20:53.649Z,64.14
2024-03-26T11:21:53.748Z,65.73
2024-03-26T11:22:53.745Z,64.91
2024-03-26T11:23:53.798Z,65.24
2024-03-26T11:24:53.842Z,64.73
2024-03-26T11:25:53.916Z,64.27
2024-03-26T11:26:53.959Z,64.02
2024-03-26T11:27:54.419Z,63.70
2024-03-26T11:28:54.055Z,63.79
2024-03-26T11:29:54.118Z,64.18
2024-03-26T11:30:54.181Z,62.64
2024-03-26T11:31:54.222Z,64.09
2024-03-26T11:32:54.294Z,65.58
2024-03-26T11:33:54.344Z,63.34
2024-03-26T11:34:54.410Z,63.55
2024-03-26T11:35:54.470Z,63.73
2024-03-26T11:36:54.519Z,63.53
2024-03-26T11:37:55.413Z,64.29
2024-03-26T11:38:54.632Z,64.11
2024-03-26T11:39:54.676Z,63.29
2024-03-26T11:40:54.737Z,62.91
2024-03-26T11:41:54.784Z,63.07
2024-03-26T11:42:54.840Z,63.40
2024-03-26T11:43:54.909Z,63.82
2024-03-26T11:44:54.980Z,63.98
2024-03-26T11:45:55.050Z,62.70
2024-03-26T11:46:55.105Z,63.92
2024-03-26T11:47:55.172Z,63.53
2024-03-26T11:48:55.234Z,63.37
2024-03-26T11:49:55.295Z,62.94
2024-03-26T11:50:55.363Z,62.76
2024-03-26T11:51:55.430Z,63.89
2024-03-26T11:52:55.520Z,64.32
2024-03-26T11:53:55.558Z,63.23
2024-03-26T11:54:55.596Z,63.63
2024-03-26T11:55:55.649Z,63.94
2024-03-26T11:56:55.701Z,63.57
2024-03-26T11:57:55.778Z,64.77
2024-03-26T11:58:55.794Z,64.16
2024-03-26T11:59:55.846Z,63.78
2024-03-26T12:00:55.900Z,63.81
2024-03-26T12:01:55.952Z,62.96
2024-03-26T12:02:56.015Z,63.03
2024-03-26T12:03:56.078Z,63.89
2024-03-26T12:04:56.117Z,63.84
2024-03-26T12:05:56.180Z,63.88
2024-03-26T12:06:56.232Z,64.21
2024-03-26T12:07:56.289Z,64.28
2024-03-26T12:08:56.345Z,65.57
2024-03-26T12:09:56.402Z,64.04
2024-03-26T12:10:56.472Z,64.97
2024-03-26T12:11:56.530Z,63.14
2024-03-26T12:12:56.579Z,63.84
2024-03-26T12:13:56.656Z,63.34
2024-03-26T12:14:56.725Z,64.46
2024-03-26T12:15:56.763Z,63.62
2024-03-26T12:16:56.814Z,62.62
2024-03-26T12:17:56.872Z,63.13
2024-03-26T12:18:56.939Z,63.96
2024-03-26T12:19:56.974Z,63.14
2024-03-26T12:20:57.030Z,64.09
2024-03-26T12:21:57.080Z,63.60
2024-03-26T12:22:57.136Z,63.82
2024-03-26T12:23:57.194Z,63.89
2024-03-26T12:24:57.249Z,64.06
2024-03-26T12:25:57.302Z,63.14
2024-03-26T12:26:57.365Z,64.94
2024-03-26T12:27:57.429Z,63.46
2024-03-26T12:28:57.499Z,63.94
2024-03-26T12:29:57.556Z,63.84
2024-03-26T12:30:57.749Z,63.20
2024-03-26T12:31:57.684Z,63.31
2024-03-26T12:32:57.752Z,62.97
2024-03-26T12:33:57.794Z,62.84
2024-03-26T12:34:57.853Z,63.52
2024-03-26T12:35:57.916Z,63.69
2024-03-26T12:36:57.954Z,62.61
2024-03-26T12:37:58.022Z,62.68
2024-03-26T12:38:58.936Z,63.53
2024-03-26T12:39:58.100Z,62.47
2024-03-26T12:40:58.146Z,63.33
2024-03-26T12:41:58.208Z,63.19
2024-03-26T12:42:58.255Z,64.09
2024-03-26T12:43:58.311Z,63.28
2024-03-26T12:44:58.374Z,62.95
2024-03-26T12:45:58.407Z,62.95
2024-03-26T12:46:58.466Z,63.49
2024-03-26T12:47:58.516Z,64.34
2024-03-26T12:48:58.580Z,63.57
2024-03-26T12:50:00.104Z,62.83
2024-03-26T12:50:58.641Z,64.23
2024-03-26T12:51:58.653Z,64.18
2024-03-26T12:52:58.659Z,62.63
2024-03-26T12:53:58.660Z,63.78